createdAt,value
2018-12-31T00:01:51.178Z,16.67
2018-12-31T00:04:17.180Z,17.70
2018-12-31T00:06:43.204Z,15.07
2018-12-31T00:09:09.193Z,15.23
2018-12-31T00:11:35.194Z,18.53
2018-12-31T00:14:01.206Z,13.63
2018-12-31T00:16:27.214Z,14.77
2018-12-31T00:18:53.222Z,14.57
2018-12-31T00:21:19.223Z,19.23
2018-12-31T00:23:45.472Z,16.70
2018-12-31T00:26:11.701Z,17.60
2018-12-31T00:28:37.689Z,17.03
2018-12-31T00:31:03.927Z,13.20
2018-12-31T00:33:29.930Z,14.73
2018-12-31T00:35:55.944Z,15.73
2018-12-31T00:38:21.946Z,14.67
2018-12-31T00:40:47.985Z,16.53
2018-12-31T00:43:13.982Z,13.40
2018-12-31T00:45:40.213Z,14.73
2018-12-31T00:48:06.212Z,17.40
2018-12-31T00:50:32.439Z,19.63
2018-12-31T00:52:58.689Z,19.13
2018-12-31T00:55:24.689Z,13.30
2018-12-31T00:57:50.703Z,16.40
2018-12-31T01:00:16.696Z,16.73
2018-12-31T01:02:42.701Z,17.63
2018-12-31T01:05:08.706Z,15.97
2018-12-31T01:07:34.718Z,20.37
2018-12-31T01:10:00.958Z,16.50
2018-12-31T01:12:26.962Z,19.83
2018-12-31T01:14:52.967Z,15.30
2018-12-31T01:17:18.974Z,16.10
2018-12-31T01:19:44.985Z,22.70
2018-12-31T01:22:10.985Z,14.87
2018-12-31T01:24:36.998Z,13.10
2018-12-31T01:27:02.998Z,17.73
2018-12-31T01:29:28.996Z,15.40
2018-12-31T01:31:55.221Z,17.47
2018-12-31T01:34:21.245Z,15.03
2018-12-31T01:36:47.239Z,16.90
2018-12-31T01:39:13.476Z,14.03
2018-12-31T01:41:39.502Z,16.67
2018-12-31T01:44:05.506Z,16.17
2018-12-31T01:46:31.520Z,19.57
2018-12-31T01:48:57.762Z,18.47
2018-12-31T01:51:23.770Z,16.67
2018-12-31T01:53:50.002Z,21.07
2018-12-31T01:56:16.261Z,19.27
2018-12-31T01:58:42.494Z,17.40
2018-12-31T02:01:08.489Z,15.00
2018-12-31T02:03:34.502Z,15.87
2018-12-31T02:06:00.735Z,14.40
2018-12-31T02:08:26.751Z,15.03
2018-12-31T02:11:01.692Z,20.73
2018-12-31T02:13:27.754Z,19.00
2018-12-31T02:15:53.998Z,18.67
2018-12-31T02:18:20.253Z,15.17
2018-12-31T02:20:46.258Z,18.30
2018-12-31T02:23:12.389Z,16.83
2018-12-31T02:25:38.389Z,13.03
2018-12-31T02:28:04.394Z,14.27
2018-12-31T02:30:30.431Z,16.23
2018-12-31T02:32:57.136Z,15.90
2018-12-31T02:35:23.159Z,20.67
2018-12-31T02:37:49.159Z,16.33
2018-12-31T02:40:15.171Z,17.43
2018-12-31T02:42:41.185Z,15.67
2018-12-31T02:45:07.420Z,17.50
2018-12-31T02:47:33.425Z,16.83
2018-12-31T02:49:59.438Z,14.90
2018-12-31T02:52:25.462Z,17.77
2018-12-31T02:54:51.485Z,20.17
2018-12-31T02:57:17.485Z,14.60
2018-12-31T02:59:43.768Z,16.23
2018-12-31T03:02:09.761Z,14.73
2018-12-31T03:04:35.775Z,14.03
2018-12-31T03:07:01.796Z,18.33
2018-12-31T03:09:27.806Z,14.40
2018-12-31T03:11:53.823Z,18.37
2018-12-31T03:14:19.826Z,15.63
2018-12-31T03:16:46.075Z,16.80
2018-12-31T03:19:12.081Z,15.13
2018-12-31T03:21:38.330Z,19.00
2018-12-31T03:24:04.565Z,13.93
2018-12-31T03:26:30.796Z,14.77
2018-12-31T03:28:57.055Z,14.33
2018-12-31T03:31:23.091Z,15.17
2018-12-31T03:33:49.177Z,14.27
2018-12-31T03:36:15.194Z,14.67
2018-12-31T03:38:41.224Z,16.40
2018-12-31T03:41:07.224Z,12.07
2018-12-31T03:43:33.246Z,15.97
2018-12-31T03:45:59.498Z,14.13
2018-12-31T03:48:25.748Z,13.60
2018-12-31T03:50:51.970Z,17.20
2018-12-31T03:53:18.227Z,15.13
2018-12-31T03:55:44.233Z,15.00
2018-12-31T03:58:10.508Z,16.13
2018-12-31T04:00:36.515Z,16.00
2018-12-31T04:03:02.789Z,13.17
2018-12-31T04:05:28.787Z,19.00
2018-12-31T04:07:54.820Z,11.47
2018-12-31T04:10:21.084Z,12.17
2018-12-31T04:12:47.081Z,9.47
2018-12-31T04:15:13.103Z,11.63
2018-12-31T04:17:39.357Z,11.50
2018-12-31T04:20:05.385Z,16.43
2018-12-31T04:22:31.605Z,8.30
2018-12-31T04:24:57.852Z,10.20
2018-12-31T04:31:04.037Z,8.37
2018-12-31T04:33:30.052Z,10.13
2018-12-31T04:35:56.166Z,9.03
2018-12-31T04:38:22.158Z,11.97
2018-12-31T04:40:48.159Z,9.80
2018-12-31T04:43:14.190Z,11.40
2018-12-31T04:45:40.210Z,8.23
2018-12-31T04:48:06.282Z,8.23
2018-12-31T04:50:32.342Z,8.63
2018-12-31T04:52:58.364Z,13.77
2018-12-31T04:55:24.383Z,11.27
2018-12-31T04:57:50.406Z,10.10
2018-12-31T05:00:16.418Z,9.47
2018-12-31T05:02:42.422Z,11.10
2018-12-31T05:05:08.537Z,9.70
2018-12-31T05:07:34.528Z,12.30
2018-12-31T05:10:00.534Z,7.57
2018-12-31T05:12:26.787Z,9.83
2018-12-31T05:14:52.794Z,9.50
2018-12-31T05:17:18.819Z,9.13
2018-12-31T05:19:44.827Z,11.87
2018-12-31T05:22:10.846Z,12.80
2018-12-31T05:24:36.859Z,10.30
2018-12-31T05:27:02.884Z,8.20
2018-12-31T05:29:28.895Z,9.80
2018-12-31T05:31:54.920Z,8.13
2018-12-31T05:34:21.159Z,8.70
2018-12-31T05:36:47.182Z,8.37
2018-12-31T05:39:13.182Z,14.70
2018-12-31T05:41:39.193Z,12.63
2018-12-31T05:44:05.456Z,8.70
2018-12-31T05:46:31.478Z,11.43
2018-12-31T05:48:57.481Z,9.93
2018-12-31T05:51:23.510Z,11.10
2018-12-31T05:53:49.510Z,13.20
2018-12-31T05:56:15.514Z,13.13
2018-12-31T05:58:41.526Z,9.80
2018-12-31T06:01:07.527Z,10.90
2018-12-31T06:03:33.537Z,11.20
2018-12-31T06:05:59.538Z,10.23
2018-12-31T06:08:25.549Z,9.90
2018-12-31T06:10:51.593Z,10.47
2018-12-31T06:13:17.600Z,9.10
2018-12-31T06:15:43.600Z,10.30
2018-12-31T06:18:09.623Z,11.10
2018-12-31T06:20:35.629Z,9.23
2018-12-31T06:23:01.892Z,12.07
2018-12-31T06:25:27.903Z,9.60
2018-12-31T06:27:53.928Z,9.93
2018-12-31T06:30:19.930Z,13.23
2018-12-31T06:32:45.950Z,9.73
2018-12-31T06:35:11.953Z,12.67
2018-12-31T06:37:38.000Z,13.53
2018-12-31T06:40:04.300Z,8.67
2018-12-31T06:42:30.579Z,10.73
2018-12-31T06:44:56.607Z,9.83
2018-12-31T06:47:22.626Z,9.90
2018-12-31T06:49:48.873Z,13.87
2018-12-31T06:52:14.885Z,11.07
2018-12-31T06:54:41.165Z,13.63
2018-12-31T06:57:07.254Z,15.10
2018-12-31T06:59:33.507Z,14.33
2018-12-31T07:01:59.526Z,13.87
2018-12-31T07:04:25.533Z,10.63
2018-12-31T07:06:51.559Z,15.57
2018-12-31T07:09:17.562Z,11.70
2018-12-31T07:11:43.575Z,16.27
2018-12-31T07:14:09.827Z,17.97
2018-12-31T07:16:35.834Z,16.90
2018-12-31T07:19:01.860Z,11.00
2018-12-31T07:21:28.103Z,15.80
2018-12-31T07:23:54.133Z,16.50
2018-12-31T07:26:20.134Z,11.73
2018-12-31T07:28:46.151Z,9.90
2018-12-31T07:31:12.159Z,11.50
2018-12-31T07:33:38.192Z,15.37
2018-12-31T07:36:04.195Z,13.27
2018-12-31T07:38:30.236Z,11.00
2018-12-31T07:40:56.260Z,11.83
2018-12-31T07:43:22.283Z,14.70
2018-12-31T07:45:48.539Z,12.60
2018-12-31T07:48:14.559Z,12.80
2018-12-31T07:50:40.565Z,10.67
2018-12-31T07:53:06.662Z,8.93
2018-12-31T07:55:32.665Z,10.33
2018-12-31T07:57:58.675Z,11.17
2018-12-31T08:00:24.709Z,11.93
2018-12-31T08:02:50.711Z,11.40
2018-12-31T08:05:16.729Z,11.67
2018-12-31T08:07:42.754Z,8.93
2018-12-31T08:10:08.782Z,9.43
2018-12-31T08:12:34.851Z,11.90
2018-12-31T08:15:01.108Z,10.97
2018-12-31T08:17:27.139Z,11.70
2018-12-31T08:19:53.168Z,10.77
2018-12-31T08:22:19.188Z,10.53
2018-12-31T08:24:45.198Z,9.97
2018-12-31T08:27:11.220Z,14.87
2018-12-31T08:29:37.262Z,9.87
2018-12-31T08:32:03.343Z,12.13
2018-12-31T08:34:29.587Z,11.67
2018-12-31T08:36:55.609Z,10.87
2018-12-31T08:39:21.621Z,16.00
2018-12-31T08:41:47.647Z,10.03
2018-12-31T08:44:13.661Z,14.23
2018-12-31T08:46:39.719Z,14.13
2018-12-31T08:49:05.938Z,10.57
2018-12-31T08:51:32.218Z,12.13
2018-12-31T08:53:58.240Z,12.97
2018-12-31T08:56:24.584Z,10.53
2018-12-31T08:58:50.595Z,12.20
2018-12-31T09:01:16.623Z,10.37
2018-12-31T09:03:42.634Z,11.93
2018-12-31T09:06:08.865Z,11.80
2018-12-31T09:08:34.930Z,10.90
2018-12-31T09:11:01.024Z,10.07
2018-12-31T09:13:27.035Z,7.30
2018-12-31T09:15:53.050Z,9.37
2018-12-31T09:18:19.054Z,10.40
2018-12-31T09:20:45.088Z,9.97
2018-12-31T09:23:11.092Z,10.00
2018-12-31T09:25:37.101Z,10.77
2018-12-31T09:28:03.127Z,11.30
2018-12-31T09:30:29.381Z,10.60
2018-12-31T09:32:55.385Z,12.70
2018-12-31T09:35:21.672Z,15.10
2018-12-31T09:37:47.685Z,12.23
2018-12-31T09:40:13.699Z,13.60
2018-12-31T09:42:39.718Z,11.10
2018-12-31T09:45:05.782Z,8.23
2018-12-31T09:47:31.794Z,10.33
2018-12-31T09:49:58.042Z,10.53
2018-12-31T09:52:24.056Z,14.73
2018-12-31T09:54:50.065Z,11.07
2018-12-31T09:57:16.108Z,11.37
2018-12-31T09:59:42.351Z,12.03
2018-12-31T10:02:08.663Z,10.07
2018-12-31T10:04:34.675Z,9.47
2018-12-31T10:07:00.682Z,10.30
2018-12-31T10:09:26.713Z,8.93
2018-12-31T10:11:52.709Z,9.23
2018-12-31T10:14:18.947Z,8.73
2018-12-31T10:16:44.967Z,11.43
2018-12-31T10:19:10.974Z,9.87
2018-12-31T10:21:41.017Z,10.57
2018-12-31T10:24:05.187Z,8.20
2018-12-31T10:26:31.192Z,8.63
2018-12-31T10:28:57.215Z,9.20
2018-12-31T10:31:23.215Z,9.70
2018-12-31T10:33:49.458Z,9.77
2018-12-31T10:36:15.461Z,6.30
2018-12-31T10:38:42.398Z,10.07
2018-12-31T10:41:08.575Z,7.10
2018-12-31T10:43:34.819Z,7.10
2018-12-31T10:46:00.836Z,7.63
2018-12-31T10:48:26.883Z,9.07
2018-12-31T10:50:52.919Z,7.73
2018-12-31T10:53:18.913Z,7.17
2018-12-31T10:55:44.942Z,7.50
2018-12-31T10:58:10.954Z,9.50
2018-12-31T11:00:36.994Z,8.40
2018-12-31T11:03:03.229Z,6.37
2018-12-31T11:05:29.245Z,9.00
2018-12-31T11:07:55.271Z,8.63
2018-12-31T11:10:21.280Z,6.77
2018-12-31T11:12:47.302Z,6.10
2018-12-31T11:15:13.548Z,8.70
2018-12-31T11:17:39.541Z,7.40
2018-12-31T11:20:05.557Z,9.60
2018-12-31T11:22:31.568Z,9.23
2018-12-31T11:24:57.595Z,7.93
2018-12-31T11:27:23.590Z,7.27
2018-12-31T11:29:49.625Z,7.30
2018-12-31T11:32:15.651Z,6.53
2018-12-31T11:34:41.659Z,8.67
2018-12-31T11:37:07.690Z,8.90
2018-12-31T11:39:33.707Z,9.90
2018-12-31T11:41:59.740Z,8.10
2018-12-31T11:44:25.787Z,6.33
2018-12-31T11:46:51.805Z,9.30
2018-12-31T11:49:17.819Z,15.13
2018-12-31T11:51:43.845Z,7.50
2018-12-31T11:54:09.845Z,8.17
2018-12-31T11:56:35.878Z,8.67
2018-12-31T11:59:01.888Z,10.70
2018-12-31T12:01:28.009Z,10.60
2018-12-31T12:03:54.023Z,11.47
2018-12-31T12:06:20.319Z,11.50
2018-12-31T12:08:46.351Z,13.77
2018-12-31T12:11:12.657Z,9.93
2018-12-31T12:13:38.684Z,12.23
2018-12-31T12:16:04.702Z,9.50
2018-12-31T12:18:30.842Z,7.87
2018-12-31T12:20:56.857Z,9.60
2018-12-31T12:23:22.857Z,8.97
2018-12-31T12:25:49.301Z,9.97
2018-12-31T12:28:15.593Z,9.57
2018-12-31T12:30:41.624Z,13.27
2018-12-31T12:33:07.635Z,11.80
2018-12-31T12:35:33.680Z,9.80
2018-12-31T12:37:59.754Z,12.17
2018-12-31T12:40:26.080Z,12.23
2018-12-31T12:42:52.092Z,10.47
2018-12-31T12:45:18.363Z,9.97
2018-12-31T12:47:44.627Z,9.27
2018-12-31T12:50:10.639Z,10.43
2018-12-31T12:52:36.658Z,10.50
2018-12-31T12:55:03.119Z,10.60
2018-12-31T12:57:29.432Z,12.27
2018-12-31T12:59:55.454Z,11.20
2018-12-31T13:02:21.762Z,9.43
2018-12-31T13:04:48.037Z,9.43
2018-12-31T13:07:14.090Z,8.27
2018-12-31T13:09:40.091Z,7.13
2018-12-31T13:12:06.510Z,7.07
2018-12-31T13:14:32.535Z,7.20
2018-12-31T13:16:58.539Z,7.63
2018-12-31T13:19:24.538Z,9.03
2018-12-31T13:21:50.592Z,7.87
2018-12-31T13:24:16.581Z,6.03
2018-12-31T13:26:43.727Z,9.23
2018-12-31T13:29:10.011Z,7.23
2018-12-31T13:31:36.278Z,8.23
2018-12-31T13:34:02.325Z,9.17
2018-12-31T13:36:28.366Z,6.17
2018-12-31T13:38:54.428Z,8.70
2018-12-31T13:41:20.704Z,10.20
2018-12-31T13:43:46.966Z,7.13
2018-12-31T13:46:13.212Z,8.30
2018-12-31T13:48:39.230Z,8.80
2018-12-31T13:51:05.274Z,6.53
2018-12-31T13:53:31.581Z,6.07
2018-12-31T13:55:57.875Z,10.93
2018-12-31T13:58:24.183Z,9.90
2018-12-31T14:00:50.216Z,11.63
2018-12-31T14:03:17.315Z,14.27
2018-12-31T14:05:44.984Z,13.33
2018-12-31T14:08:10.991Z,9.37
2018-12-31T14:10:36.999Z,8.73
2018-12-31T14:13:03.232Z,6.03
2018-12-31T14:15:29.459Z,8.60
2018-12-31T14:17:55.487Z,9.50
2018-12-31T14:20:21.492Z,12.43
2018-12-31T14:22:47.518Z,14.20
2018-12-31T14:25:13.529Z,12.47
2018-12-31T14:27:40.180Z,13.07
2018-12-31T14:30:07.086Z,9.60
2018-12-31T14:32:33.107Z,9.47
2018-12-31T14:34:59.115Z,13.57
2018-12-31T14:37:25.177Z,10.83
2018-12-31T14:39:51.211Z,12.50
2018-12-31T14:42:17.518Z,9.83
2018-12-31T14:44:43.566Z,13.73
2018-12-31T14:47:09.638Z,12.57
2018-12-31T14:49:35.674Z,10.03
2018-12-31T14:52:01.909Z,10.97
2018-12-31T14:54:28.160Z,11.33
2018-12-31T14:56:54.170Z,13.07
2018-12-31T14:59:20.427Z,12.93
2018-12-31T15:01:46.697Z,10.10
2018-12-31T15:04:12.704Z,12.27
2018-12-31T15:06:38.727Z,10.13
2018-12-31T15:09:04.752Z,14.43
2018-12-31T15:11:30.760Z,13.37
2018-12-31T15:13:57.187Z,11.67
2018-12-31T15:16:23.420Z,12.70
2018-12-31T15:18:49.634Z,12.90
2018-12-31T15:21:15.673Z,14.53
2018-12-31T15:23:41.902Z,16.80
2018-12-31T15:26:07.919Z,11.60
2018-12-31T15:28:34.559Z,13.03
2018-12-31T15:31:00.573Z,12.97
2018-12-31T15:33:26.580Z,13.20
2018-12-31T15:35:52.590Z,14.73
2018-12-31T15:38:18.609Z,14.67
2018-12-31T15:40:44.632Z,16.17
2018-12-31T15:43:10.857Z,16.13
2018-12-31T15:45:36.877Z,14.93
2018-12-31T15:48:02.949Z,12.50
2018-12-31T15:50:28.973Z,19.27
2018-12-31T15:52:55.082Z,14.27
2018-12-31T15:55:21.099Z,19.43
2018-12-31T15:57:47.134Z,19.73
2018-12-31T16:00:13.443Z,16.80
2018-12-31T16:02:39.465Z,15.20
2018-12-31T16:05:05.882Z,15.80
2018-12-31T16:07:31.977Z,17.33
2018-12-31T16:09:57.974Z,17.87
2018-12-31T16:12:23.999Z,19.47
2018-12-31T16:14:50.002Z,16.30
2018-12-31T16:17:16.021Z,17.43
2018-12-31T16:19:42.031Z,15.67
2018-12-31T16:22:08.042Z,18.73
2018-12-31T16:24:34.273Z,19.33
2018-12-31T16:27:00.529Z,18.43
2018-12-31T16:29:26.738Z,18.70
2018-12-31T16:31:53.152Z,20.23
2018-12-31T16:34:19.166Z,19.47
2018-12-31T16:36:45.169Z,18.63
2018-12-31T16:39:11.181Z,29.07
2018-12-31T16:41:37.186Z,37.90
2018-12-31T16:44:03.541Z,29.40
2018-12-31T16:46:29.738Z,26.57
2018-12-31T16:48:55.999Z,26.33
2018-12-31T16:51:22.030Z,25.67
2018-12-31T16:53:48.025Z,23.17
2018-12-31T16:56:14.042Z,20.50
2018-12-31T16:58:40.219Z,24.07
2018-12-31T17:01:06.231Z,25.93
2018-12-31T17:03:32.446Z,27.67
2018-12-31T17:05:58.557Z,26.87
2018-12-31T17:08:24.566Z,24.30
2018-12-31T17:10:50.594Z,31.67
2018-12-31T17:13:16.615Z,31.83
2018-12-31T17:15:42.652Z,34.47
2018-12-31T17:18:08.661Z,26.50
2018-12-31T17:20:35.110Z,27.87
2018-12-31T17:23:01.118Z,30.00
2018-12-31T17:25:27.143Z,26.53
2018-12-31T17:27:53.191Z,26.30
2018-12-31T17:30:19.289Z,27.27
2018-12-31T17:32:45.304Z,25.17
2018-12-31T17:35:11.823Z,25.13
2018-12-31T17:37:38.079Z,44.23
2018-12-31T17:40:04.198Z,44.37
2018-12-31T17:42:30.219Z,30.90
2018-12-31T17:44:56.470Z,33.23
2018-12-31T17:47:22.480Z,30.60
2018-12-31T17:49:48.524Z,23.77
2018-12-31T17:52:14.825Z,22.90
2018-12-31T17:54:40.834Z,24.70
2018-12-31T17:57:06.855Z,21.23
2018-12-31T17:59:32.878Z,21.93
2018-12-31T18:01:58.903Z,22.70
2018-12-31T18:04:25.014Z,23.87
2018-12-31T18:06:51.024Z,20.57
2018-12-31T18:09:17.043Z,20.57
2018-12-31T18:11:43.055Z,24.70
2018-12-31T18:14:09.291Z,24.40
2018-12-31T18:16:35.343Z,22.83
2018-12-31T18:19:01.355Z,26.33
2018-12-31T18:21:27.370Z,20.47
2018-12-31T18:23:53.674Z,21.80
2018-12-31T18:26:19.698Z,22.67
2018-12-31T18:28:45.934Z,28.27
2018-12-31T18:31:11.946Z,22.13
2018-12-31T18:33:37.969Z,26.63
2018-12-31T18:36:03.985Z,26.97
2018-12-31T18:38:30.377Z,33.30
2018-12-31T18:40:56.610Z,25.53
2018-12-31T18:43:22.623Z,26.20
2018-12-31T18:45:48.640Z,25.80
2018-12-31T18:48:14.650Z,33.20
2018-12-31T18:50:40.679Z,27.43
2018-12-31T18:53:06.686Z,28.60
2018-12-31T18:55:32.828Z,31.73
2018-12-31T18:57:59.145Z,35.47
2018-12-31T19:00:25.177Z,39.77
2018-12-31T19:02:51.186Z,44.57
2018-12-31T19:05:17.230Z,31.90
2018-12-31T19:07:43.470Z,34.53
2018-12-31T19:10:09.500Z,35.00
2018-12-31T19:12:35.607Z,39.17
2018-12-31T19:15:01.636Z,43.97
2018-12-31T19:17:27.877Z,42.23
2018-12-31T19:19:53.890Z,33.80
2018-12-31T19:22:19.898Z,35.50
2018-12-31T19:24:45.913Z,36.37
2018-12-31T19:27:12.444Z,33.33
2018-12-31T19:29:38.693Z,29.97
2018-12-31T19:32:04.709Z,34.73
2018-12-31T19:34:30.725Z,36.40
2018-12-31T19:36:56.753Z,35.00
2018-12-31T19:39:22.754Z,30.37
2018-12-31T19:41:48.785Z,46.37
2018-12-31T19:44:14.782Z,31.80
2018-12-31T19:46:40.811Z,31.73
2018-12-31T19:49:06.827Z,38.70
2018-12-31T19:51:33.087Z,35.07
2018-12-31T19:53:59.354Z,39.10
2018-12-31T19:56:25.364Z,35.93
2018-12-31T19:58:51.388Z,40.77
2018-12-31T20:01:17.623Z,45.63
2018-12-31T20:03:43.630Z,43.13
2018-12-31T20:06:09.647Z,54.63
2018-12-31T20:08:35.674Z,48.50
2018-12-31T20:11:01.698Z,45.57
2018-12-31T20:13:27.950Z,41.33
2018-12-31T20:15:54.259Z,42.30
2018-12-31T20:18:20.279Z,46.77
2018-12-31T20:20:46.282Z,47.40
2018-12-31T20:23:12.402Z,48.83
2018-12-31T20:25:38.415Z,36.27
2018-12-31T20:28:06.093Z,37.17
2018-12-31T20:30:32.283Z,36.47
2018-12-31T20:32:58.396Z,41.73
2018-12-31T20:35:24.414Z,34.07
2018-12-31T20:37:50.615Z,36.87
2018-12-31T20:40:16.658Z,36.43
2018-12-31T20:42:42.669Z,38.27
2018-12-31T20:45:08.697Z,36.53
2018-12-31T20:47:34.966Z,43.27
2018-12-31T20:50:01.360Z,40.07
2018-12-31T20:52:27.645Z,40.23
2018-12-31T20:54:53.642Z,45.27
2018-12-31T20:57:19.662Z,43.20
2018-12-31T20:59:45.682Z,43.83
2018-12-31T21:02:11.688Z,41.43
2018-12-31T21:04:37.703Z,48.33
2018-12-31T21:07:05.446Z,42.23
2018-12-31T21:09:31.563Z,36.60
2018-12-31T21:11:57.584Z,45.13
2018-12-31T21:14:23.624Z,40.70
2018-12-31T21:16:49.923Z,39.30
2018-12-31T21:19:15.995Z,42.07
2018-12-31T21:21:42.004Z,42.10
2018-12-31T21:24:08.039Z,41.40
2018-12-31T21:26:34.042Z,36.23
2018-12-31T21:29:00.067Z,31.30
2018-12-31T21:31:26.066Z,40.90
2018-12-31T21:33:52.342Z,37.83
2018-12-31T21:36:18.353Z,32.07
2018-12-31T21:38:44.403Z,35.20
2018-12-31T21:41:10.410Z,27.73
2018-12-31T21:43:36.430Z,30.23
2018-12-31T21:46:02.436Z,34.57
2018-12-31T21:48:29.147Z,39.57
2018-12-31T21:50:55.173Z,40.10
2018-12-31T21:53:21.255Z,38.03
2018-12-31T21:55:47.896Z,36.30
2018-12-31T21:58:14.138Z,42.43
2018-12-31T22:00:40.163Z,48.20
2018-12-31T22:03:06.436Z,37.10
2018-12-31T22:05:32.551Z,37.57
2018-12-31T22:07:58.817Z,45.37
2018-12-31T22:10:24.817Z,43.80
2018-12-31T22:12:51.157Z,48.83
2018-12-31T22:15:17.196Z,38.87
2018-12-31T22:17:43.222Z,359.37
2018-12-31T22:20:09.241Z,93.00
2018-12-31T22:22:35.255Z,66.20
2018-12-31T22:25:01.293Z,138.87
2018-12-31T22:27:27.395Z,120.80
2018-12-31T22:29:53.693Z,101.97
2018-12-31T22:32:19.730Z,86.30
2018-12-31T22:34:45.751Z,59.77
2018-12-31T22:37:11.766Z,91.73
2018-12-31T22:39:38.218Z,113.43
2018-12-31T22:42:04.223Z,87.27
2018-12-31T22:44:30.548Z,81.97
2018-12-31T22:46:56.571Z,75.70
2018-12-31T22:49:22.579Z,96.70
2018-12-31T22:51:48.847Z,88.53
2018-12-31T22:54:14.881Z,63.20
2018-12-31T22:56:40.914Z,63.50
2018-12-31T22:59:06.941Z,61.83
2018-12-31T23:01:33.208Z,203.97
2018-12-31T23:03:59.219Z,211.27
2018-12-31T23:06:25.243Z,553.57
2018-12-31T23:08:51.525Z,665.60
2018-12-31T23:11:17.768Z,981.67
2018-12-31T23:13:43.794Z,361.10
2018-12-31T23:16:10.298Z,409.20
2018-12-31T23:18:36.352Z,404.10
2018-12-31T23:21:02.581Z,395.53
2018-12-31T23:23:28.595Z,514.53
2018-12-31T23:25:54.867Z,536.50
2018-12-31T23:28:20.877Z,557.27
2018-12-31T23:30:47.103Z,674.33
2018-12-31T23:33:13.131Z,767.03
2018-12-31T23:35:39.361Z,673.90
2018-12-31T23:38:05.390Z,665.13
2018-12-31T23:40:31.403Z,719.07
2018-12-31T23:42:57.442Z,814.30
2018-12-31T23:45:23.454Z,833.73
2018-12-31T23:47:50.008Z,784.23
2018-12-31T23:50:16.118Z,846.50
2018-12-31T23:52:42.370Z,810.93
2018-12-31T23:55:08.662Z,795.53
2018-12-31T23:57:34.971Z,723.87
